createdAt,value
2023-04-09T00:01:14.364Z,75.96
2023-04-09T00:03:46.087Z,76.29
2023-04-09T00:06:16.729Z,76.60
2023-04-09T00:08:49.397Z,77.07
2023-04-09T00:11:20.938Z,77.36
2023-04-09T00:13:51.493Z,77.63
2023-04-09T00:16:22.346Z,77.26
2023-04-09T00:18:53.110Z,77.27
2023-04-09T00:21:24.360Z,77.38
2023-04-09T00:23:54.816Z,77.53
2023-04-09T00:26:25.921Z,77.00
2023-04-09T00:28:56.503Z,77.01
2023-04-09T00:31:27.087Z,77.37
2023-04-09T00:33:57.704Z,77.69
2023-04-09T00:36:28.384Z,77.96
2023-04-09T00:39:00.860Z,78.45
2023-04-09T00:41:32.956Z,78.65
2023-04-09T00:44:03.993Z,78.88
2023-04-09T00:46:34.582Z,79.03
2023-04-09T00:49:05.348Z,79.15
2023-04-09T00:51:38.828Z,79.30
2023-04-09T00:54:11.694Z,79.47
2023-04-09T00:56:43.244Z,79.54
2023-04-09T00:59:16.021Z,79.67
2023-04-09T01:01:46.566Z,79.85
2023-04-09T01:04:17.244Z,79.65
2023-04-09T01:06:54.062Z,79.85
2023-04-09T01:09:37.002Z,80.03
2023-04-09T01:12:21.526Z,80.09
2023-04-09T01:15:12.419Z,80.33
2023-04-09T01:17:48.868Z,80.37
2023-04-09T01:20:25.364Z,80.45
2023-04-09T01:23:04.131Z,80.47
2023-04-09T01:25:46.358Z,80.65
2023-04-09T01:28:28.487Z,80.92
2023-04-09T01:31:02.554Z,79.93
2023-04-09T01:33:33.434Z,79.95
2023-04-09T01:36:05.941Z,80.00
2023-04-09T01:38:43.882Z,80.56
2023-04-09T01:41:17.813Z,80.95
2023-04-09T01:43:50.131Z,81.01
2023-04-09T01:46:24.117Z,80.36
2023-04-09T01:48:56.227Z,80.81
2023-04-09T01:51:27.895Z,80.97
2023-04-09T01:53:59.209Z,81.33
2023-04-09T01:56:42.386Z,81.45
2023-04-09T01:59:13.669Z,80.86
2023-04-09T02:01:50.225Z,80.58
2023-04-09T02:04:27.003Z,81.34
2023-04-09T02:07:06.535Z,81.64
2023-04-09T02:09:40.734Z,81.95
2023-04-09T02:12:16.346Z,81.91
2023-04-09T02:14:50.264Z,82.05
2023-04-09T02:17:23.618Z,82.35
2023-04-09T02:19:54.344Z,82.50
2023-04-09T02:22:24.863Z,82.59
2023-04-09T02:24:55.661Z,82.69
2023-04-09T02:27:26.331Z,82.95
2023-04-09T02:29:56.848Z,82.93
2023-04-09T02:32:27.552Z,83.12
2023-04-09T02:34:58.075Z,82.81
2023-04-09T02:37:28.558Z,82.64
2023-04-09T02:39:59.122Z,82.78
2023-04-09T02:42:29.567Z,82.92
2023-04-09T02:45:00.070Z,83.06
2023-04-09T02:47:30.807Z,83.25
2023-04-09T02:50:01.445Z,83.39
2023-04-09T02:52:31.964Z,83.45
2023-04-09T02:55:02.663Z,83.41
2023-04-09T02:57:33.793Z,83.27
2023-04-09T03:00:06.229Z,83.31
2023-04-09T03:02:36.802Z,83.49
2023-04-09T03:05:08.422Z,83.50
2023-04-09T03:07:38.931Z,83.63
2023-04-09T03:10:10.359Z,83.69
2023-04-09T03:12:44.204Z,84.07
2023-04-09T03:15:15.273Z,84.18
2023-04-09T03:17:45.985Z,84.16
2023-04-09T03:20:16.708Z,84.20
2023-04-09T03:22:49.007Z,84.58
2023-04-09T03:25:21.399Z,85.02
2023-04-09T03:27:51.773Z,85.36
2023-04-09T03:30:22.327Z,85.69
2023-04-09T03:32:52.876Z,86.28
2023-04-09T03:35:23.619Z,86.55
2023-04-09T03:37:54.108Z,86.92
2023-04-09T03:40:24.611Z,87.38
2023-04-09T03:42:55.242Z,87.66
2023-04-09T03:45:28.556Z,88.04
2023-04-09T03:47:59.261Z,88.37
2023-04-09T03:50:29.733Z,88.67
2023-04-09T03:53:00.204Z,88.97
2023-04-09T03:55:30.841Z,89.17
2023-04-09T03:58:01.376Z,89.35
2023-04-09T04:00:32.014Z,89.40
2023-04-09T04:03:02.689Z,89.58
2023-04-09T04:05:33.562Z,89.45
2023-04-09T04:08:04.004Z,89.42
2023-04-09T04:10:36.084Z,89.43
2023-04-09T04:13:12.127Z,89.46
2023-04-09T04:15:43.313Z,89.61
2023-04-09T04:18:15.484Z,89.65
2023-04-09T04:20:46.780Z,89.61
2023-04-09T04:23:19.490Z,89.76
2023-04-09T04:25:50.755Z,89.72
2023-04-09T04:28:21.255Z,89.73
2023-04-09T04:30:53.093Z,89.51
2023-04-09T04:33:23.794Z,89.57
2023-04-09T04:35:54.453Z,89.59
2023-04-09T04:38:25.603Z,89.53
2023-04-09T04:40:57.650Z,89.19
2023-04-09T04:43:29.285Z,88.87
2023-04-09T04:45:59.873Z,88.75
2023-04-09T04:48:31.992Z,88.61
2023-04-09T04:51:03.619Z,88.47
2023-04-09T04:53:34.457Z,88.62
2023-04-09T04:56:05.325Z,88.45
2023-04-09T04:58:35.778Z,88.46
2023-04-09T05:01:06.511Z,88.58
2023-04-09T05:03:37.282Z,88.42
2023-04-09T05:06:08.120Z,88.40
2023-04-09T05:08:38.638Z,88.32
2023-04-09T05:11:15.114Z,88.30
2023-04-09T05:13:46.566Z,88.36
2023-04-09T05:16:23.177Z,88.38
2023-04-09T05:18:55.362Z,88.44
2023-04-09T05:21:29.032Z,88.13
2023-04-09T05:23:59.943Z,88.33
2023-04-09T05:26:30.768Z,88.30
2023-04-09T05:29:01.344Z,88.00
2023-04-09T05:31:31.972Z,87.67
2023-04-09T05:34:02.613Z,87.61
2023-04-09T05:36:33.657Z,87.63
2023-04-09T05:39:04.346Z,87.35
2023-04-09T05:41:36.695Z,87.07
2023-04-09T05:44:07.276Z,87.05
2023-04-09T05:46:38.382Z,86.67
2023-04-09T05:49:08.885Z,85.90
2023-04-09T05:51:39.488Z,85.42
2023-04-09T05:54:10.702Z,85.21
2023-04-09T05:56:41.378Z,85.04
2023-04-09T05:59:12.047Z,84.67
2023-04-09T06:01:42.728Z,85.18
2023-04-09T06:04:14.100Z,85.38
2023-04-09T06:06:45.806Z,85.24
2023-04-09T06:09:16.340Z,84.51
2023-04-09T06:11:46.884Z,84.33
2023-04-09T06:14:21.419Z,83.68
2023-04-09T06:16:52.585Z,83.31
2023-04-09T06:19:23.842Z,82.76
2023-04-09T06:21:54.462Z,82.59
2023-04-09T06:24:26.803Z,82.55
2023-04-09T06:26:57.320Z,83.03
2023-04-09T06:29:28.032Z,84.01
2023-04-09T06:31:58.564Z,83.95
2023-04-09T06:37:20.440Z,83.56
2023-04-09T06:40:00.418Z,82.45
2023-04-09T06:42:24.468Z,81.95
2023-04-09T06:44:55.198Z,83.32
2023-04-09T06:47:27.422Z,84.62
2023-04-09T06:49:57.959Z,85.19
2023-04-09T06:52:28.487Z,84.68
2023-04-09T06:54:59.457Z,83.95
2023-04-09T06:57:29.920Z,83.87
2023-04-09T07:00:00.549Z,83.09
2023-04-09T07:02:31.598Z,83.64
2023-04-09T07:05:03.086Z,83.83
2023-04-09T07:07:33.877Z,83.07
2023-04-09T07:10:04.481Z,82.40
2023-04-09T07:12:36.051Z,82.69
2023-04-09T07:15:08.086Z,83.08
2023-04-09T07:17:38.820Z,82.46
2023-04-09T07:20:10.474Z,81.99
2023-04-09T07:22:43.109Z,81.66
2023-04-09T07:25:13.536Z,81.64
2023-04-09T07:27:45.218Z,81.79
2023-04-09T07:30:17.447Z,81.89
2023-04-09T07:32:47.979Z,81.60
2023-04-09T07:35:19.166Z,81.53
2023-04-09T07:37:52.309Z,81.01
2023-04-09T07:40:22.922Z,79.67
2023-04-09T07:42:54.063Z,80.11
2023-04-09T07:45:24.691Z,80.72
2023-04-09T07:47:56.675Z,82.17
2023-04-09T07:50:27.277Z,81.78
2023-04-09T07:52:57.993Z,81.87
2023-04-09T07:55:28.480Z,81.30
2023-04-09T07:57:59.600Z,82.45
2023-04-09T08:00:31.587Z,82.17
2023-04-09T08:03:03.844Z,81.12
2023-04-09T08:05:36.531Z,79.57
2023-04-09T08:08:07.373Z,78.88
2023-04-09T08:10:39.591Z,80.64
2023-04-09T08:13:12.095Z,80.42
2023-04-09T08:15:43.263Z,80.46
2023-04-09T08:18:13.869Z,80.10
2023-04-09T08:20:45.589Z,78.53
2023-04-09T08:23:16.500Z,77.81
2023-04-09T08:25:47.031Z,79.46
2023-04-09T08:28:19.133Z,80.93
2023-04-09T08:30:50.100Z,81.02
2023-04-09T08:33:22.624Z,80.36
2023-04-09T08:35:54.532Z,80.22
2023-04-09T08:38:26.878Z,79.49
2023-04-09T08:40:57.585Z,78.10
2023-04-09T08:43:52.558Z,77.88
2023-04-09T08:46:03.730Z,77.28
2023-04-09T08:48:35.099Z,77.15
2023-04-09T08:51:06.847Z,76.03
2023-04-09T08:53:38.946Z,76.11
2023-04-09T08:56:10.652Z,75.85
2023-04-09T08:58:46.537Z,76.31
2023-04-09T09:01:29.079Z,75.37
2023-04-09T09:04:08.372Z,73.93
2023-04-09T09:06:42.243Z,73.66
2023-04-09T09:09:17.501Z,74.23
2023-04-09T09:11:51.284Z,74.43
2023-04-09T09:14:21.843Z,73.28
2023-04-09T09:17:03.689Z,73.07
2023-04-09T09:19:35.803Z,73.59
2023-04-09T09:22:13.855Z,71.14
2023-04-09T09:24:50.361Z,69.86
2023-04-09T09:27:37.822Z,69.54
2023-04-09T09:30:10.468Z,69.50
2023-04-09T09:32:42.555Z,69.50
2023-04-09T09:35:13.299Z,71.32
2023-04-09T09:37:43.985Z,71.46
2023-04-09T09:40:18.613Z,70.74
2023-04-09T09:43:00.622Z,71.13
2023-04-09T09:45:33.239Z,69.90
2023-04-09T09:48:04.243Z,72.21
2023-04-09T09:50:38.219Z,71.01
2023-04-09T09:53:10.596Z,69.66
2023-04-09T09:55:44.824Z,68.91
2023-04-09T09:58:27.060Z,70.61
2023-04-09T10:00:58.814Z,71.38
2023-04-09T10:03:34.439Z,72.08
2023-04-09T10:06:05.042Z,72.37
2023-04-09T10:08:38.032Z,69.82
2023-04-09T10:11:08.968Z,67.88
2023-04-09T10:13:45.551Z,67.64
2023-04-09T10:16:17.366Z,69.04
2023-04-09T10:18:48.071Z,69.72
2023-04-09T10:21:38.352Z,70.25
2023-04-09T10:24:10.598Z,69.49
2023-04-09T10:26:45.188Z,68.35
2023-04-09T10:29:18.396Z,71.09
2023-04-09T10:31:57.568Z,71.64
2023-04-09T10:34:29.356Z,71.26
2023-04-09T10:37:00.892Z,70.29
2023-04-09T10:39:34.689Z,70.27
2023-04-09T10:42:08.934Z,68.81
2023-04-09T10:44:44.440Z,67.62
2023-04-09T10:47:18.014Z,67.14
2023-04-09T10:49:50.251Z,66.95
2023-04-09T10:52:24.510Z,65.69
2023-04-09T10:54:55.095Z,68.46
2023-04-09T10:57:26.468Z,66.93
2023-04-09T10:59:57.063Z,67.11
2023-04-09T11:02:42.855Z,68.51
2023-04-09T11:05:22.314Z,67.98
2023-04-09T11:08:10.641Z,66.34
2023-04-09T11:10:44.467Z,66.52
2023-04-09T11:13:16.936Z,67.78
2023-04-09T11:15:48.128Z,66.97
2023-04-09T11:18:28.342Z,66.76
2023-04-09T11:21:01.564Z,65.28
2023-04-09T11:23:33.932Z,64.54
2023-04-09T11:26:05.365Z,64.78
2023-04-09T11:28:36.417Z,66.03
2023-04-09T11:31:08.273Z,66.99
2023-04-09T11:33:38.993Z,66.79
2023-04-09T11:36:09.709Z,64.97
2023-04-09T11:38:40.281Z,66.21
2023-04-09T11:41:12.765Z,65.68
2023-04-09T11:43:43.413Z,66.16
2023-04-09T11:46:14.199Z,66.29
2023-04-09T11:48:45.621Z,65.86
2023-04-09T11:51:16.471Z,67.45
2023-04-09T11:53:48.488Z,67.05
2023-04-09T11:56:19.049Z,66.80
2023-04-09T11:58:50.564Z,66.14
2023-04-09T12:01:23.057Z,66.33
2023-04-09T12:04:01.284Z,66.03
2023-04-09T12:06:32.073Z,66.25
2023-04-09T12:09:06.000Z,66.88
2023-04-09T12:11:38.462Z,66.35
2023-04-09T12:14:10.891Z,66.56
2023-04-09T12:16:43.257Z,66.01
2023-04-09T12:19:15.644Z,64.68
2023-04-09T12:21:58.344Z,63.72
2023-04-09T12:24:28.925Z,63.21
2023-04-09T12:26:59.472Z,63.37
2023-04-09T12:29:30.567Z,64.22
2023-04-09T12:32:01.736Z,63.88
2023-04-09T12:34:33.670Z,62.72
2023-04-09T12:37:04.964Z,62.97
2023-04-09T12:39:35.642Z,63.55
2023-04-09T12:42:06.139Z,63.93
2023-04-09T12:44:37.324Z,64.58
2023-04-09T12:47:08.623Z,64.70
2023-04-09T12:49:42.449Z,64.36
2023-04-09T12:52:13.646Z,63.46
2023-04-09T12:54:45.206Z,63.82
2023-04-09T12:57:16.292Z,64.69
2023-04-09T12:59:48.051Z,63.77
2023-04-09T13:02:18.906Z,63.26
2023-04-09T13:04:51.393Z,63.13
2023-04-09T13:07:22.862Z,63.14
2023-04-09T13:09:53.632Z,63.68
2023-04-09T13:12:25.451Z,62.83
2023-04-09T13:14:59.573Z,62.39
2023-04-09T13:17:30.275Z,61.70
2023-04-09T13:20:01.653Z,62.07
2023-04-09T13:22:32.331Z,62.84
2023-04-09T13:25:03.062Z,62.98
2023-04-09T13:27:33.587Z,61.85
2023-04-09T13:30:04.241Z,60.93
2023-04-09T13:32:36.078Z,60.64
2023-04-09T13:35:08.015Z,60.18
2023-04-09T13:37:38.738Z,59.68
2023-04-09T13:40:10.256Z,59.14
2023-04-09T13:42:41.155Z,58.34
2023-04-09T13:45:13.080Z,59.48
2023-04-09T13:47:43.619Z,59.97
2023-04-09T13:50:14.212Z,60.55
2023-04-09T13:52:44.898Z,60.51
2023-04-09T13:55:16.142Z,60.14
2023-04-09T13:57:46.941Z,58.71
2023-04-09T14:00:19.334Z,57.66
2023-04-09T14:02:50.073Z,59.61
2023-04-09T14:05:20.942Z,58.98
2023-04-09T14:07:51.694Z,58.91
2023-04-09T14:10:23.260Z,58.84
2023-04-09T14:12:54.268Z,58.53
2023-04-09T14:15:25.016Z,57.82
2023-04-09T14:17:55.619Z,58.42
2023-04-09T14:20:26.581Z,57.93
2023-04-09T14:22:57.335Z,56.61
2023-04-09T14:25:27.960Z,57.50
2023-04-09T14:27:59.128Z,57.06
2023-04-09T14:30:30.500Z,57.76
2023-04-09T14:33:04.270Z,57.80
2023-04-09T14:35:36.461Z,57.78
2023-04-09T14:38:07.613Z,57.47
2023-04-09T14:40:40.272Z,58.15
2023-04-09T14:43:11.275Z,59.50
2023-04-09T14:45:43.509Z,59.92
2023-04-09T14:48:14.137Z,59.91
2023-04-09T14:50:45.459Z,59.99
2023-04-09T14:53:17.017Z,58.96
2023-04-09T14:55:47.466Z,59.06
2023-04-09T14:58:18.224Z,60.41
2023-04-09T15:00:48.901Z,61.33
2023-04-09T15:03:19.878Z,62.14
2023-04-09T15:05:53.298Z,61.72
2023-04-09T15:08:23.993Z,62.57
2023-04-09T15:10:56.092Z,63.48
2023-04-09T15:13:26.665Z,63.27
2023-04-09T15:15:59.878Z,62.56
2023-04-09T15:18:30.520Z,63.26
2023-04-09T15:21:02.420Z,63.30
2023-04-09T15:23:34.599Z,63.58
2023-04-09T15:26:06.735Z,63.56
2023-04-09T15:28:37.352Z,63.88
2023-04-09T15:31:08.252Z,64.09
2023-04-09T15:33:39.085Z,64.74
2023-04-09T15:36:11.023Z,64.38
2023-04-09T15:38:41.916Z,64.22
2023-04-09T15:41:12.520Z,64.19
2023-04-09T15:43:43.971Z,64.09
2023-04-09T15:46:16.407Z,63.50
2023-04-09T15:48:48.576Z,63.76
2023-04-09T15:51:19.381Z,63.44
2023-04-09T15:53:49.951Z,63.68
2023-04-09T15:56:20.746Z,63.78
2023-04-09T15:58:51.534Z,63.37
2023-04-09T16:01:22.633Z,62.98
2023-04-09T16:03:56.105Z,63.40
2023-04-09T16:06:29.604Z,62.93
2023-04-09T16:09:00.438Z,63.16
2023-04-09T16:11:31.958Z,62.95
2023-04-09T16:14:03.846Z,62.43
2023-04-09T16:16:34.709Z,61.39
2023-04-09T16:19:05.459Z,60.98
2023-04-09T16:21:36.839Z,61.25
2023-04-09T16:24:07.993Z,59.88
2023-04-09T16:26:40.848Z,59.06
2023-04-09T16:29:13.254Z,59.41
2023-04-09T16:31:45.024Z,59.14
2023-04-09T16:34:18.100Z,59.06
2023-04-09T16:36:51.556Z,58.12
2023-04-09T16:39:22.977Z,57.82
2023-04-09T16:41:54.632Z,58.87
2023-04-09T16:44:28.693Z,60.08
2023-04-09T16:47:01.116Z,61.68
2023-04-09T16:49:31.850Z,61.68
2023-04-09T16:52:09.300Z,62.13
2023-04-09T16:54:36.114Z,61.65
2023-04-09T16:57:07.335Z,62.10
2023-04-09T16:59:37.842Z,62.26
2023-04-09T17:02:08.645Z,62.52
2023-04-09T17:04:41.117Z,63.55
2023-04-09T17:07:13.245Z,64.52
2023-04-09T17:09:44.228Z,64.86
2023-04-09T17:12:15.271Z,65.23
2023-04-09T17:14:45.953Z,65.87
2023-04-09T17:17:17.269Z,66.13
2023-04-09T17:19:48.035Z,66.36
2023-04-09T17:22:18.972Z,66.44
2023-04-09T17:24:49.630Z,66.65
2023-04-09T17:27:20.650Z,66.79
2023-04-09T17:29:53.857Z,67.03
2023-04-09T17:32:25.975Z,67.95
2023-04-09T17:34:56.609Z,68.32
2023-04-09T17:37:28.947Z,68.29
2023-04-09T17:40:00.686Z,68.84
2023-04-09T17:42:31.476Z,69.01
2023-04-09T17:45:02.137Z,69.10
2023-04-09T17:47:32.920Z,69.55
2023-04-09T17:50:04.725Z,69.37
2023-04-09T17:52:39.648Z,69.71
2023-04-09T17:55:14.764Z,70.56
2023-04-09T17:57:48.164Z,71.06
2023-04-09T18:00:19.409Z,71.62
2023-04-09T18:02:54.199Z,72.07
2023-04-09T18:05:26.059Z,72.58
2023-04-09T18:07:57.289Z,72.90
2023-04-09T18:10:27.796Z,73.12
2023-04-09T18:12:59.831Z,73.27
2023-04-09T18:15:32.416Z,73.41
2023-04-09T18:18:03.034Z,73.56
2023-04-09T18:20:33.897Z,73.76
2023-04-09T18:23:04.722Z,73.91
2023-04-09T18:25:35.266Z,74.25
2023-04-09T18:28:06.167Z,74.14
2023-04-09T18:30:38.762Z,74.29
2023-04-09T18:33:09.825Z,74.46
2023-04-09T18:35:40.513Z,74.51
2023-04-09T18:38:11.257Z,74.96
2023-04-09T18:40:43.818Z,75.28
2023-04-09T18:43:20.530Z,74.80
2023-04-09T18:45:51.424Z,74.64
2023-04-09T18:48:23.459Z,75.29
2023-04-09T18:50:54.004Z,75.37
2023-04-09T18:53:26.233Z,75.48
2023-04-09T18:55:58.269Z,75.82
2023-04-09T18:58:28.825Z,75.72
2023-04-09T19:01:00.994Z,75.90
2023-04-09T19:03:32.406Z,75.75
2023-04-09T19:06:03.099Z,75.95
2023-04-09T19:08:37.133Z,76.46
2023-04-09T19:11:08.241Z,76.83
2023-04-09T19:13:39.702Z,76.39
2023-04-09T19:16:12.746Z,76.72
2023-04-09T19:18:42.469Z,77.13
2023-04-09T19:21:13.285Z,77.87
2023-04-09T19:23:45.440Z,77.83
2023-04-09T19:26:16.120Z,78.08
2023-04-09T19:28:46.860Z,77.99
2023-04-09T19:31:17.748Z,77.71
2023-04-09T19:33:48.266Z,77.68
2023-04-09T19:36:19.121Z,78.01
2023-04-09T19:38:50.699Z,77.95
2023-04-09T19:41:21.437Z,78.31
2023-04-09T19:43:52.326Z,78.31
2023-04-09T19:46:22.849Z,78.63
2023-04-09T19:48:53.645Z,78.30
2023-04-09T19:51:24.368Z,79.26
2023-04-09T19:53:54.946Z,79.44
2023-04-09T19:56:26.877Z,79.55
2023-04-09T19:58:58.443Z,79.57
2023-04-09T20:01:29.181Z,79.59
2023-04-09T20:04:01.006Z,79.37
2023-04-09T20:06:33.353Z,79.36
2023-04-09T20:09:07.842Z,79.17
2023-04-09T20:11:37.948Z,79.51
2023-04-09T20:14:10.138Z,79.47
2023-04-09T20:16:40.928Z,79.79
2023-04-09T20:19:11.573Z,79.61
2023-04-09T20:21:43.483Z,79.51
2023-04-09T20:24:14.092Z,79.50
2023-04-09T20:26:46.918Z,79.93
2023-04-09T20:29:17.583Z,79.92
2023-04-09T20:31:48.099Z,80.34
2023-04-09T20:34:18.734Z,80.16
2023-04-09T20:36:52.253Z,80.34
2023-04-09T20:39:27.736Z,80.15
2023-04-09T20:41:58.436Z,80.61
2023-04-09T20:44:29.455Z,80.60
2023-04-09T20:47:00.055Z,80.68
2023-04-09T20:49:30.974Z,80.82
2023-04-09T20:52:01.526Z,81.10
2023-04-09T20:54:33.608Z,81.35
2023-04-09T20:57:05.704Z,81.43
2023-04-09T20:59:37.217Z,81.85
2023-04-09T21:02:09.127Z,82.03
2023-04-09T21:04:42.725Z,82.51
2023-04-09T21:07:13.735Z,82.41
2023-04-09T21:09:46.134Z,82.11
2023-04-09T21:12:16.650Z,82.15
2023-04-09T21:14:48.302Z,82.22
2023-04-09T21:17:18.863Z,82.07
2023-04-09T21:19:49.366Z,81.81
2023-04-09T21:22:20.774Z,81.75
2023-04-09T21:24:56.073Z,81.72
2023-04-09T21:27:26.632Z,81.92
2023-04-09T21:29:59.898Z,82.27
2023-04-09T21:32:29.558Z,82.35
2023-04-09T21:35:01.908Z,82.39
2023-04-09T21:37:33.666Z,82.43
2023-04-09T21:40:04.549Z,82.54
2023-04-09T21:42:35.677Z,82.57
2023-04-09T21:45:08.275Z,83.08
2023-04-09T21:47:40.770Z,82.78
2023-04-09T21:50:13.658Z,83.02
2023-04-09T21:52:48.353Z,83.33
2023-04-09T21:55:18.827Z,82.97
2023-04-09T21:57:52.597Z,83.57
2023-04-09T22:00:24.772Z,83.90
2023-04-09T22:02:57.140Z,83.99
2023-04-09T22:05:28.624Z,84.33
2023-04-09T22:07:59.190Z,84.14
2023-04-09T22:10:31.447Z,84.69
2023-04-09T22:13:02.434Z,84.76
2023-04-09T22:15:33.636Z,84.94
2023-04-09T22:18:05.571Z,84.42
2023-04-09T22:20:37.156Z,84.02
2023-04-09T22:23:09.868Z,84.65
2023-04-09T22:25:40.383Z,85.09
2023-04-09T22:28:10.909Z,85.17
2023-04-09T22:30:41.532Z,84.83
2023-04-09T22:33:12.129Z,84.82
2023-04-09T22:35:43.473Z,85.20
2023-04-09T22:38:15.064Z,85.13
2023-04-09T22:40:48.402Z,84.85
2023-04-09T22:43:20.598Z,84.22
2023-04-09T22:45:56.116Z,83.87
2023-04-09T22:48:28.808Z,84.18
2023-04-09T22:51:00.468Z,84.31
2023-04-09T22:53:32.076Z,84.58
2023-04-09T22:56:05.131Z,85.08
2023-04-09T22:58:37.644Z,85.04
2023-04-09T23:01:08.818Z,85.03
2023-04-09T23:03:48.629Z,84.76
2023-04-09T23:06:19.303Z,84.90
2023-04-09T23:08:50.499Z,84.66
2023-04-09T23:11:21.786Z,84.54
2023-04-09T23:13:52.439Z,84.58
2023-04-09T23:16:24.692Z,84.57
2023-04-09T23:18:55.338Z,84.60
2023-04-09T23:21:26.702Z,84.62
2023-04-09T23:24:19.788Z,84.89
2023-04-09T23:26:49.460Z,84.85
2023-04-09T23:29:20.449Z,85.41
2023-04-09T23:31:51.446Z,85.55
2023-04-09T23:34:22.207Z,85.75
2023-04-09T23:36:52.931Z,85.57
2023-04-09T23:39:25.067Z,85.60
2023-04-09T23:41:56.194Z,85.79
2023-04-09T23:44:27.329Z,85.79
2023-04-09T23:46:59.334Z,85.75
2023-04-09T23:49:50.041Z,85.42
2023-04-09T23:52:21.817Z,85.58
2023-04-09T23:54:53.263Z,85.74
2023-04-09T23:57:25.540Z,85.93
